createdAt,value
2023-01-27T00:01:07.697Z,1.70
2023-01-27T00:03:35.953Z,1.90
2023-01-27T00:06:04.806Z,1.80
2023-01-27T00:08:32.871Z,1.80
2023-01-27T00:11:19.195Z,1.70
2023-01-27T00:13:47.155Z,1.80
2023-01-27T00:16:16.463Z,1.80
2023-01-27T00:18:44.422Z,1.80
2023-01-27T00:21:29.871Z,1.90
2023-01-27T00:24:15.365Z,1.80
2023-01-27T00:26:43.342Z,1.80
2023-01-27T00:29:11.364Z,1.80
2023-01-27T00:31:58.242Z,1.80
2023-01-27T00:34:26.159Z,2.80
2023-01-27T00:36:54.106Z,1.80
2023-01-27T00:39:22.078Z,1.70
2023-01-27T00:41:50.038Z,1.70
2023-01-27T00:44:17.999Z,1.70
2023-01-27T00:46:47.439Z,1.70
2023-01-27T00:49:15.400Z,1.70
2023-01-27T00:51:43.410Z,1.90
2023-01-27T00:54:11.890Z,1.70
2023-01-27T00:56:39.895Z,1.70
2023-01-27T00:59:08.219Z,1.70
2023-01-27T01:01:36.506Z,1.70
2023-01-27T01:04:05.915Z,1.70
2023-01-27T01:06:33.789Z,1.80
2023-01-27T01:09:01.695Z,1.80
2023-01-27T01:11:29.585Z,1.80
2023-01-27T01:13:57.478Z,1.80
2023-01-27T01:16:26.377Z,1.80
2023-01-27T01:18:54.690Z,1.80
2023-01-27T01:21:23.873Z,1.80
2023-01-27T01:23:51.795Z,1.80
2023-01-27T01:26:19.760Z,1.80
2023-01-27T01:28:47.728Z,1.80
2023-01-27T01:31:17.408Z,1.80
2023-01-27T01:33:45.449Z,1.80
2023-01-27T01:36:14.805Z,1.80
2023-01-27T01:38:44.403Z,1.80
2023-01-27T01:41:15.008Z,1.70
2023-01-27T01:43:43.043Z,1.70
2023-01-27T01:46:11.936Z,1.70
2023-01-27T01:48:42.965Z,1.70
2023-01-27T01:51:14.136Z,1.80
2023-01-27T01:53:48.661Z,1.80
2023-01-27T01:56:22.517Z,1.80
2023-01-27T01:58:50.676Z,1.80
2023-01-27T02:01:20.395Z,1.80
2023-01-27T02:03:53.476Z,1.80
2023-01-27T02:06:22.429Z,1.90
2023-01-27T02:08:52.828Z,1.90
2023-01-27T02:11:21.060Z,1.90
2023-01-27T02:13:49.372Z,1.90
2023-01-27T02:16:17.387Z,1.90
2023-01-27T02:18:45.726Z,1.90
2023-01-27T02:21:13.773Z,1.90
2023-01-27T02:23:56.579Z,1.90
2023-01-27T02:26:29.775Z,1.90
2023-01-27T02:28:59.525Z,1.90
2023-01-27T02:31:27.633Z,1.80
2023-01-27T02:34:00.494Z,1.80
2023-01-27T02:36:31.455Z,1.80
2023-01-27T02:39:00.586Z,1.80
2023-01-27T02:41:35.099Z,1.80
2023-01-27T02:44:03.060Z,1.70
2023-01-27T02:46:31.114Z,1.70
2023-01-27T02:48:58.983Z,1.80
2023-01-27T02:51:27.083Z,1.80
2023-01-27T02:53:54.991Z,1.80
2023-01-27T02:56:23.029Z,1.70
2023-01-27T02:58:52.228Z,1.70
2023-01-27T03:01:20.174Z,1.70
2023-01-27T03:03:48.101Z,1.70
2023-01-27T03:06:16.912Z,1.70
2023-01-27T03:08:45.769Z,1.70
2023-01-27T03:11:13.821Z,1.60
2023-01-27T03:13:41.926Z,1.60
2023-01-27T03:16:30.268Z,1.70
2023-01-27T03:18:58.335Z,1.70
2023-01-27T03:21:26.268Z,1.70
2023-01-27T03:23:54.183Z,1.70
2023-01-27T03:26:22.113Z,1.70
2023-01-27T03:29:09.976Z,1.70
2023-01-27T03:31:39.360Z,1.70
2023-01-27T03:34:07.328Z,1.70
2023-01-27T03:36:53.453Z,1.80
2023-01-27T03:39:38.840Z,1.80
2023-01-27T03:42:24.504Z,1.80
2023-01-27T03:45:10.130Z,1.80
2023-01-27T03:47:39.631Z,1.80
2023-01-27T03:50:11.375Z,1.80
2023-01-27T03:52:39.281Z,1.80
2023-01-27T03:55:09.549Z,1.80
2023-01-27T03:57:38.246Z,1.80
2023-01-27T04:00:07.057Z,1.80
2023-01-27T04:02:52.650Z,1.90
2023-01-27T04:05:39.608Z,1.90
2023-01-27T04:08:07.945Z,1.90
2023-01-27T04:10:35.806Z,1.90
2023-01-27T04:13:02.666Z,1.90
2023-01-27T04:15:30.507Z,1.90
2023-01-27T04:17:58.354Z,1.90
2023-01-27T04:20:27.607Z,1.90
2023-01-27T04:22:56.058Z,1.90
2023-01-27T04:25:23.922Z,1.90
2023-01-27T04:27:51.746Z,2.00
2023-01-27T04:30:22.785Z,2.00
2023-01-27T04:32:51.581Z,2.00
2023-01-27T04:35:21.522Z,1.90
2023-01-27T04:37:52.585Z,1.90
2023-01-27T04:40:20.839Z,1.80
2023-01-27T04:42:48.714Z,1.80
2023-01-27T04:45:16.729Z,1.80
2023-01-27T04:47:44.899Z,1.80
2023-01-27T04:50:12.826Z,1.80
2023-01-27T04:52:40.712Z,1.80
2023-01-27T04:55:11.661Z,1.80
2023-01-27T04:57:40.004Z,1.80
2023-01-27T05:00:09.172Z,1.80
2023-01-27T05:02:37.140Z,1.70
2023-01-27T05:05:05.860Z,1.70
2023-01-27T05:07:34.032Z,1.70
2023-01-27T05:10:01.922Z,1.70
2023-01-27T05:12:31.195Z,1.70
2023-01-27T05:14:59.250Z,1.70
2023-01-27T05:17:30.851Z,1.70
2023-01-27T05:19:58.846Z,1.70
2023-01-27T05:22:26.827Z,1.70
2023-01-27T05:24:54.672Z,1.70
2023-01-27T05:27:23.015Z,1.70
2023-01-27T05:29:52.598Z,1.70
2023-01-27T05:32:20.421Z,1.70
2023-01-27T05:34:48.325Z,1.60
2023-01-27T05:37:16.209Z,1.60
2023-01-27T05:39:44.040Z,1.60
2023-01-27T05:42:12.028Z,1.60
2023-01-27T05:44:40.063Z,1.70
2023-01-27T05:47:09.301Z,1.70
2023-01-27T05:49:37.319Z,1.70
2023-01-27T05:52:05.325Z,1.70
2023-01-27T05:54:33.160Z,1.70
2023-01-27T05:57:01.055Z,1.60
2023-01-27T05:59:28.955Z,1.60
2023-01-27T06:01:56.925Z,1.60
2023-01-27T06:04:26.207Z,1.60
2023-01-27T06:06:54.081Z,1.70
2023-01-27T06:09:21.976Z,1.70
2023-01-27T06:11:49.874Z,1.70
2023-01-27T06:14:19.402Z,1.70
2023-01-27T06:16:48.632Z,1.60
2023-01-27T06:19:16.613Z,1.60
2023-01-27T06:21:45.941Z,1.60
2023-01-27T06:24:14.079Z,1.60
2023-01-27T06:26:42.069Z,1.70
2023-01-27T06:29:09.949Z,1.60
2023-01-27T06:31:37.928Z,1.60
2023-01-27T06:34:06.280Z,1.60
2023-01-27T06:36:34.198Z,1.60
2023-01-27T06:39:03.516Z,1.70
2023-01-27T06:41:31.417Z,1.60
2023-01-27T06:43:59.387Z,1.60
2023-01-27T06:46:27.360Z,1.60
2023-01-27T06:48:55.321Z,1.70
2023-01-27T06:51:23.269Z,1.60
2023-01-27T06:53:51.391Z,1.60
2023-01-27T06:56:20.619Z,1.70
2023-01-27T06:58:49.090Z,1.70
2023-01-27T07:01:17.967Z,1.70
2023-01-27T07:03:45.955Z,1.70
2023-01-27T07:06:15.091Z,1.70
2023-01-27T07:08:45.700Z,1.70
2023-01-27T07:11:15.217Z,1.70
2023-01-27T07:13:44.524Z,1.60
2023-01-27T07:16:12.486Z,1.70
2023-01-27T07:18:40.619Z,1.70
2023-01-27T07:21:08.695Z,1.70
2023-01-27T07:23:36.617Z,1.70
2023-01-27T07:26:12.523Z,1.70
2023-01-27T07:28:48.812Z,1.80
2023-01-27T07:31:17.070Z,1.80
2023-01-27T07:36:32.886Z,2.00
2023-01-27T07:39:09.380Z,2.10
2023-01-27T07:41:37.542Z,2.10
2023-01-27T07:44:39.783Z,2.20
2023-01-27T07:47:07.784Z,2.30
2023-01-27T07:49:35.722Z,2.30
2023-01-27T07:52:04.651Z,2.30
2023-01-27T07:54:32.743Z,2.40
2023-01-27T07:57:02.118Z,2.40
2023-01-27T07:59:31.491Z,2.40
2023-01-27T08:01:59.354Z,2.40
2023-01-27T08:04:31.626Z,2.50
2023-01-27T08:07:03.391Z,2.50
2023-01-27T08:09:31.397Z,2.60
2023-01-27T08:11:59.366Z,2.60
2023-01-27T08:14:27.660Z,2.70
2023-01-27T08:16:57.433Z,2.80
2023-01-27T08:19:27.840Z,2.80
2023-01-27T08:21:56.957Z,2.80
2023-01-27T08:24:24.965Z,2.90
2023-01-27T08:26:52.959Z,2.90
2023-01-27T08:29:20.972Z,3.00
2023-01-27T08:31:49.542Z,3.10
2023-01-27T08:34:18.853Z,3.10
2023-01-27T08:36:46.767Z,3.20
2023-01-27T08:39:14.950Z,3.30
2023-01-27T08:41:42.844Z,3.30
2023-01-27T08:44:10.750Z,3.30
2023-01-27T08:46:38.716Z,3.40
2023-01-27T08:49:06.718Z,3.40
2023-01-27T08:51:36.398Z,3.40
2023-01-27T08:54:04.309Z,3.50
2023-01-27T08:56:32.237Z,3.50
2023-01-27T08:59:00.098Z,3.70
2023-01-27T09:01:28.529Z,3.90
2023-01-27T09:03:58.465Z,3.90
2023-01-27T09:06:28.112Z,3.90
2023-01-27T09:09:12.759Z,3.90
2023-01-27T09:11:43.254Z,3.90
2023-01-27T09:14:12.025Z,3.80
2023-01-27T09:16:39.928Z,3.70
2023-01-27T09:19:08.569Z,3.70
2023-01-27T09:21:36.562Z,3.70
2023-01-27T09:24:06.022Z,3.60
2023-01-27T09:26:33.936Z,3.60
2023-01-27T09:29:01.922Z,3.60
2023-01-27T09:31:29.825Z,3.60
2023-01-27T09:33:57.723Z,3.80
2023-01-27T09:36:25.874Z,3.90
2023-01-27T09:38:57.180Z,3.90
2023-01-27T09:42:00.435Z,3.90
2023-01-27T09:44:54.993Z,3.90
2023-01-27T09:47:41.671Z,4.00
2023-01-27T09:50:30.805Z,4.20
2023-01-27T09:53:15.703Z,4.20
2023-01-27T09:55:52.016Z,4.30
2023-01-27T09:58:29.056Z,4.20
2023-01-27T10:01:08.015Z,4.20
2023-01-27T10:03:49.150Z,4.20
2023-01-27T10:06:34.652Z,4.10
2023-01-27T10:09:40.903Z,4.00
2023-01-27T10:12:21.107Z,4.00
2023-01-27T10:15:01.478Z,4.00
2023-01-27T10:17:53.827Z,4.00
2023-01-27T10:20:29.724Z,4.00
2023-01-27T10:23:10.486Z,4.00
2023-01-27T10:25:52.333Z,4.00
2023-01-27T10:28:24.056Z,4.10
2023-01-27T10:31:00.176Z,4.10
2023-01-27T10:33:45.862Z,4.10
2023-01-27T10:36:26.432Z,4.10
2023-01-27T10:39:08.013Z,4.10
2023-01-27T10:41:48.552Z,4.20
2023-01-27T10:44:43.319Z,4.40
2023-01-27T10:47:20.352Z,4.40
2023-01-27T10:49:52.374Z,4.50
2023-01-27T10:52:24.203Z,4.50
2023-01-27T10:54:57.193Z,4.50
2023-01-27T10:57:30.305Z,4.50
2023-01-27T11:00:37.635Z,4.50
2023-01-27T11:03:01.476Z,4.70
2023-01-27T11:05:34.664Z,4.80
2023-01-27T11:08:08.714Z,4.90
2023-01-27T11:11:03.270Z,5.00
2023-01-27T11:13:33.180Z,5.10
2023-01-27T11:16:02.514Z,5.30
2023-01-27T11:18:35.005Z,5.50
2023-01-27T11:21:06.056Z,5.50
2023-01-27T11:23:40.220Z,5.50
2023-01-27T11:26:18.221Z,5.30
2023-01-27T11:28:52.769Z,5.10
2023-01-27T11:31:29.792Z,5.00
2023-01-27T11:34:05.106Z,4.90
2023-01-27T11:36:35.333Z,4.90
2023-01-27T11:39:06.325Z,4.90
2023-01-27T11:41:38.348Z,4.80
2023-01-27T11:44:09.912Z,4.70
2023-01-27T11:46:38.303Z,4.60
2023-01-27T11:49:07.724Z,4.50
2023-01-27T11:51:39.870Z,4.50
2023-01-27T11:54:14.429Z,4.40
2023-01-27T11:56:45.182Z,4.30
2023-01-27T11:59:18.687Z,4.20
2023-01-27T12:01:50.956Z,4.20
2023-01-27T12:04:40.827Z,4.20
2023-01-27T12:07:15.614Z,4.10
2023-01-27T12:09:43.925Z,4.10
2023-01-27T12:12:21.533Z,4.20
2023-01-27T12:14:52.313Z,4.20
2023-01-27T12:17:25.722Z,4.20
2023-01-27T12:19:56.568Z,4.10
2023-01-27T12:25:25.730Z,4.00
2023-01-27T12:27:57.602Z,4.00
2023-01-27T12:30:28.857Z,4.00
2023-01-27T12:32:57.531Z,4.00
2023-01-27T12:35:29.918Z,4.00
2023-01-27T12:38:02.051Z,4.20
2023-01-27T12:40:30.603Z,4.20
2023-01-27T12:43:13.449Z,4.20
2023-01-27T12:45:43.387Z,4.10
2023-01-27T12:48:22.201Z,4.10
2023-01-27T12:51:07.006Z,4.10
2023-01-27T12:53:45.339Z,4.20
2023-01-27T12:56:16.330Z,4.20
2023-01-27T12:58:45.962Z,4.30
2023-01-27T13:01:25.579Z,4.30
2023-01-27T13:03:56.163Z,4.30
2023-01-27T13:06:34.615Z,3.90
2023-01-27T13:09:04.009Z,4.30
2023-01-27T13:11:37.704Z,4.30
2023-01-27T13:14:09.515Z,4.20
2023-01-27T13:16:39.620Z,4.20
2023-01-27T13:19:18.058Z,4.20
2023-01-27T13:21:50.736Z,4.10
2023-01-27T13:24:25.682Z,4.10
2023-01-27T13:27:08.665Z,4.10
2023-01-27T13:29:45.068Z,4.10
2023-01-27T13:32:20.935Z,4.10
2023-01-27T13:34:53.841Z,4.20
2023-01-27T13:37:26.796Z,4.00
2023-01-27T13:40:03.341Z,3.90
2023-01-27T13:42:37.458Z,3.80
2023-01-27T13:45:08.760Z,3.90
2023-01-27T13:47:48.286Z,4.10
2023-01-27T13:50:24.904Z,4.20
2023-01-27T13:52:56.282Z,4.30
2023-01-27T13:55:48.390Z,4.30
2023-01-27T13:58:26.915Z,4.20
2023-01-27T14:01:02.596Z,4.20
2023-01-27T14:03:55.945Z,4.20
2023-01-27T14:06:35.292Z,4.10
2023-01-27T14:09:16.239Z,4.00
2023-01-27T14:11:48.961Z,3.90
2023-01-27T14:14:28.122Z,3.80
2023-01-27T14:17:11.865Z,3.80
2023-01-27T14:19:50.802Z,3.80
2023-01-27T14:22:28.509Z,3.80
2023-01-27T14:25:05.803Z,3.70
2023-01-27T14:27:40.743Z,3.70
2023-01-27T14:30:18.082Z,3.70
2023-01-27T14:32:53.122Z,3.80
2023-01-27T14:35:31.751Z,3.80
2023-01-27T14:38:09.774Z,3.80
2023-01-27T14:40:47.136Z,3.90
2023-01-27T14:43:24.137Z,3.90
2023-01-27T14:45:57.169Z,3.90
2023-01-27T14:48:41.728Z,3.90
2023-01-27T14:51:20.500Z,3.80
2023-01-27T14:54:00.633Z,3.70
2023-01-27T14:56:41.076Z,3.60
2023-01-27T14:59:13.963Z,3.50
2023-01-27T15:01:50.392Z,3.50
2023-01-27T15:04:33.370Z,3.40
2023-01-27T15:07:12.221Z,3.30
2023-01-27T15:09:51.051Z,3.30
2023-01-27T15:12:54.147Z,3.30
2023-01-27T15:15:36.811Z,3.40
2023-01-27T15:18:20.185Z,3.30
2023-01-27T15:21:09.231Z,3.20
2023-01-27T15:23:57.498Z,3.20
2023-01-27T15:26:29.398Z,3.20
2023-01-27T15:29:00.285Z,3.20
2023-01-27T15:31:30.020Z,3.20
2023-01-27T15:34:17.337Z,3.20
2023-01-27T15:37:03.514Z,3.20
2023-01-27T15:39:40.797Z,3.10
2023-01-27T15:42:12.243Z,3.10
2023-01-27T15:44:58.247Z,3.10
2023-01-27T15:47:28.101Z,3.10
2023-01-27T15:50:08.391Z,3.10
2023-01-27T15:52:43.621Z,3.10
2023-01-27T15:55:26.535Z,3.00
2023-01-27T15:58:02.285Z,3.00
2023-01-27T16:00:35.287Z,3.00
2023-01-27T16:03:05.990Z,3.00
2023-01-27T16:05:38.473Z,2.90
2023-01-27T16:08:14.987Z,2.90
2023-01-27T16:10:43.769Z,2.90
2023-01-27T16:13:23.348Z,2.90
2023-01-27T16:16:37.367Z,2.90
2023-01-27T16:19:21.346Z,2.90
2023-01-27T16:21:55.207Z,2.90
2023-01-27T16:24:29.983Z,2.90
2023-01-27T16:27:07.862Z,2.90
2023-01-27T16:29:42.412Z,2.90
2023-01-27T16:32:21.106Z,2.90
2023-01-27T16:34:53.453Z,2.80
2023-01-27T16:37:28.611Z,2.90
2023-01-27T16:40:02.744Z,2.90
2023-01-27T16:42:35.804Z,2.90
2023-01-27T16:45:16.582Z,2.90
2023-01-27T16:47:50.779Z,2.90
2023-01-27T16:50:36.564Z,2.90
2023-01-27T16:53:06.576Z,2.90
2023-01-27T16:55:34.572Z,2.90
2023-01-27T16:58:04.026Z,2.90
2023-01-27T17:00:36.446Z,2.90
2023-01-27T17:03:11.145Z,3.00
2023-01-27T17:05:40.950Z,3.00
2023-01-27T17:08:19.103Z,2.90
2023-01-27T17:10:51.617Z,2.90
2023-01-27T17:13:28.624Z,2.90
2023-01-27T17:15:57.985Z,2.80
2023-01-27T17:18:30.077Z,2.90
2023-01-27T17:21:01.729Z,2.80
2023-01-27T17:23:34.255Z,2.70
2023-01-27T17:26:10.740Z,2.80
2023-01-27T17:28:39.235Z,2.70
2023-01-27T17:31:09.062Z,2.80
2023-01-27T17:33:42.216Z,2.80
2023-01-27T17:36:12.297Z,2.70
2023-01-27T17:38:47.481Z,2.70
2023-01-27T17:41:27.107Z,2.70
2023-01-27T17:43:58.985Z,2.70
2023-01-27T17:46:29.805Z,2.60
2023-01-27T17:49:03.735Z,2.60
2023-01-27T17:51:37.549Z,2.60
2023-01-27T17:54:17.162Z,2.60
2023-01-27T17:56:45.202Z,2.60
2023-01-27T17:59:18.613Z,2.50
2023-01-27T18:01:47.455Z,2.50
2023-01-27T18:04:17.732Z,2.50
2023-01-27T18:06:46.205Z,2.50
2023-01-27T18:09:20.307Z,2.40
2023-01-27T18:11:57.784Z,2.50
2023-01-27T18:14:27.083Z,2.50
2023-01-27T18:17:03.051Z,2.50
2023-01-27T18:19:34.000Z,2.60
2023-01-27T18:22:04.440Z,2.60
2023-01-27T18:24:33.497Z,2.60
2023-01-27T18:27:01.956Z,2.60
2023-01-27T18:29:34.956Z,2.60
2023-01-27T18:32:15.598Z,2.60
2023-01-27T18:34:49.981Z,2.60
2023-01-27T18:37:28.018Z,2.50
2023-01-27T18:39:56.790Z,2.50
2023-01-27T18:42:26.170Z,2.50
2023-01-27T18:44:54.665Z,2.50
2023-01-27T18:47:34.659Z,2.60
2023-01-27T18:50:15.112Z,2.50
2023-01-27T18:52:43.291Z,2.50
2023-01-27T18:55:20.481Z,2.50
2023-01-27T18:57:50.451Z,2.60
2023-01-27T19:00:20.029Z,2.50
2023-01-27T19:02:50.324Z,2.50
2023-01-27T19:05:21.938Z,2.50
2023-01-27T19:07:50.009Z,2.50
2023-01-27T19:10:24.737Z,2.50
2023-01-27T19:12:52.957Z,2.50
2023-01-27T19:15:24.113Z,2.50
2023-01-27T19:17:53.885Z,2.50
2023-01-27T19:20:25.634Z,2.50
2023-01-27T19:22:55.136Z,2.50
2023-01-27T19:25:24.341Z,2.50
2023-01-27T19:27:55.702Z,2.50
2023-01-27T19:30:29.962Z,2.50
2023-01-27T19:32:58.546Z,2.60
2023-01-27T19:35:31.568Z,2.60
2023-01-27T19:38:03.673Z,2.50
2023-01-27T19:40:33.037Z,2.50
2023-01-27T19:43:01.112Z,2.40
2023-01-27T19:45:29.611Z,2.40
2023-01-27T19:47:59.805Z,2.40
2023-01-27T19:50:31.224Z,2.40
2023-01-27T19:52:59.970Z,2.40
2023-01-27T19:55:28.163Z,2.40
2023-01-27T19:57:56.112Z,2.50
2023-01-27T20:00:27.499Z,2.50
2023-01-27T20:02:55.841Z,2.60
2023-01-27T20:05:24.719Z,2.60
2023-01-27T20:07:55.625Z,2.60
2023-01-27T20:10:26.680Z,2.60
2023-01-27T20:12:57.049Z,2.60
2023-01-27T20:15:27.057Z,2.60
2023-01-27T20:17:55.760Z,2.60
2023-01-27T20:20:25.156Z,2.60
2023-01-27T20:22:54.983Z,2.70
2023-01-27T20:25:24.599Z,2.70
2023-01-27T20:27:54.765Z,2.80
2023-01-27T20:30:25.031Z,2.90
2023-01-27T20:32:55.904Z,2.90
2023-01-27T20:35:24.751Z,2.90
2023-01-27T20:37:54.973Z,2.90
2023-01-27T20:40:25.688Z,2.90
2023-01-27T20:42:54.016Z,2.90
2023-01-27T20:45:23.310Z,2.90
2023-01-27T20:47:52.444Z,3.00
2023-01-27T20:50:21.326Z,2.90
2023-01-27T20:52:49.512Z,2.90
2023-01-27T20:55:20.311Z,2.90
2023-01-27T20:57:48.607Z,3.00
2023-01-27T21:00:24.106Z,3.10
2023-01-27T21:02:52.069Z,3.10
2023-01-27T21:05:20.295Z,3.00
2023-01-27T21:07:48.282Z,3.10
2023-01-27T21:10:20.367Z,3.10
2023-01-27T21:12:48.317Z,3.10
2023-01-27T21:15:16.718Z,3.10
2023-01-27T21:17:44.711Z,3.10
2023-01-27T21:20:13.462Z,3.10
2023-01-27T21:22:41.327Z,3.10
2023-01-27T21:25:09.783Z,3.10
2023-01-27T21:27:39.040Z,3.10
2023-01-27T21:30:08.175Z,3.10
2023-01-27T21:32:36.582Z,3.10
2023-01-27T21:35:04.710Z,3.20
2023-01-27T21:37:32.637Z,3.00
2023-01-27T21:40:00.607Z,3.10
2023-01-27T21:42:45.872Z,3.10
2023-01-27T21:45:16.407Z,3.10
2023-01-27T21:47:44.899Z,3.10
2023-01-27T21:50:14.853Z,3.10
2023-01-27T21:52:45.474Z,3.10
2023-01-27T21:55:16.169Z,3.10
2023-01-27T21:57:45.724Z,3.10
2023-01-27T22:00:16.902Z,3.10
2023-01-27T22:02:45.490Z,3.10
2023-01-27T22:05:13.919Z,3.20
2023-01-27T22:07:42.668Z,3.20
2023-01-27T22:10:15.449Z,3.20
2023-01-27T22:12:45.557Z,3.20
2023-01-27T22:15:16.401Z,3.20
2023-01-27T22:17:45.169Z,3.10
2023-01-27T22:20:17.341Z,3.20
2023-01-27T22:22:45.535Z,3.20
2023-01-27T22:25:15.919Z,3.20
2023-01-27T22:27:45.082Z,3.20
2023-01-27T22:30:16.678Z,3.20
2023-01-27T22:32:45.361Z,3.20
2023-01-27T22:35:15.830Z,3.20
2023-01-27T22:37:44.139Z,3.20
2023-01-27T22:40:13.856Z,3.20
2023-01-27T22:42:41.822Z,3.20
2023-01-27T22:45:11.593Z,3.20
2023-01-27T22:47:41.738Z,3.20
2023-01-27T22:50:11.308Z,3.20
2023-01-27T22:52:40.175Z,3.20
2023-01-27T22:55:10.411Z,3.20
2023-01-27T22:57:38.641Z,3.20
2023-01-27T23:00:09.457Z,3.20
2023-01-27T23:02:38.319Z,3.20
2023-01-27T23:05:08.414Z,3.20
2023-01-27T23:07:36.381Z,3.20
2023-01-27T23:10:04.527Z,3.20
2023-01-27T23:12:33.277Z,3.20
2023-01-27T23:15:03.394Z,3.10
2023-01-27T23:17:35.236Z,3.20
2023-01-27T23:20:06.809Z,3.20
2023-01-27T23:22:39.311Z,3.10
2023-01-27T23:25:08.012Z,3.10
2023-01-27T23:27:39.249Z,3.10
2023-01-27T23:30:10.160Z,3.10
2023-01-27T23:32:40.534Z,3.10
2023-01-27T23:35:09.052Z,3.20
2023-01-27T23:37:38.593Z,3.20
2023-01-27T23:40:07.718Z,3.10
2023-01-27T23:42:35.798Z,3.10
2023-01-27T23:45:03.844Z,3.10
2023-01-27T23:47:31.794Z,3.10
2023-01-27T23:49:59.860Z,3.10
2023-01-27T23:52:27.820Z,3.10
2023-01-27T23:54:57.060Z,3.10
2023-01-27T23:57:25.089Z,3.10
2023-01-27T23:59:53.005Z,3.10
